createdAt,value
2023-04-11T00:01:49.523Z,100673.09
2023-04-11T00:04:18.177Z,100673.13
2023-04-11T00:06:45.474Z,100675.81
2023-04-11T00:09:12.529Z,100648.72
2023-04-11T00:11:39.578Z,100672.31
2023-04-11T00:14:08.821Z,100671.38
2023-04-11T00:16:36.434Z,100677.47
2023-04-11T00:19:03.486Z,100677.63
2023-04-11T00:21:30.568Z,100675.03
2023-04-11T00:23:57.648Z,100669.16
2023-04-11T00:26:24.795Z,100669.94
2023-04-11T00:28:51.983Z,100671.03
2023-04-11T00:31:19.133Z,100668.63
2023-04-11T00:33:46.291Z,100673.78
2023-04-11T00:36:13.539Z,100664.50
2023-04-11T00:38:42.257Z,100676.59
2023-04-11T00:41:09.317Z,100674.13
2023-04-11T00:43:36.902Z,100667.25
2023-04-11T00:46:04.463Z,100662.09
2023-04-11T00:48:31.932Z,100666.56
2023-04-11T00:50:59.692Z,100661.28
2023-04-11T00:53:28.860Z,100668.31
2023-04-11T00:55:57.067Z,100674.28
2023-04-11T00:58:24.178Z,100670.13
2023-04-11T01:00:51.487Z,100672.53
2023-04-11T01:03:19.312Z,100673.41
2023-04-11T01:05:48.870Z,100664.88
2023-04-11T01:08:17.552Z,100682.34
2023-04-11T01:10:45.068Z,100681.63
2023-04-11T01:13:12.864Z,100688.38
2023-04-11T01:15:39.976Z,100673.06
2023-04-11T01:18:08.943Z,100689.50
2023-04-11T01:20:38.312Z,100684.41
2023-04-11T01:23:07.320Z,100686.25
2023-04-11T01:25:34.523Z,100686.03
2023-04-11T01:28:01.851Z,100684.59
2023-04-11T01:30:29.028Z,100688.72
2023-04-11T01:32:56.187Z,100684.31
2023-04-11T01:35:23.431Z,100688.59
2023-04-11T01:37:50.763Z,100693.75
2023-04-11T01:40:19.624Z,100698.13
2023-04-11T01:42:48.722Z,100693.75
2023-04-11T01:45:16.070Z,100703.13
2023-04-11T01:47:43.221Z,100710.78
2023-04-11T01:50:11.994Z,100706.63
2023-04-11T01:52:39.213Z,100717.72
2023-04-11T01:55:06.669Z,100711.66
2023-04-11T01:57:33.790Z,100711.66
2023-04-11T02:00:01.363Z,100721.22
2023-04-11T02:02:28.643Z,100739.41
2023-04-11T02:04:55.817Z,100728.22
2023-04-11T02:07:23.576Z,100717.81
2023-04-11T02:09:50.713Z,100728.94
2023-04-11T02:12:17.967Z,100723.69
2023-04-11T02:14:46.261Z,100741.88
2023-04-11T02:17:14.077Z,100748.88
2023-04-11T02:19:41.529Z,100744.78
2023-04-11T02:22:11.357Z,100750.69
2023-04-11T02:24:38.698Z,100753.31
2023-04-11T02:27:06.152Z,100750.41
2023-04-11T02:29:33.614Z,100760.88
2023-04-11T02:32:01.311Z,100749.56
2023-04-11T02:34:28.414Z,100761.69
2023-04-11T02:36:55.654Z,100765.28
2023-04-11T02:39:24.170Z,100770.25
2023-04-11T02:41:51.373Z,100745.38
2023-04-11T02:44:19.724Z,100760.16
2023-04-11T02:46:46.917Z,100760.16
2023-04-11T02:49:14.063Z,100764.59
2023-04-11T02:51:41.260Z,100756.75
2023-04-11T02:54:08.386Z,100761.94
2023-04-11T02:56:38.588Z,100757.53
2023-04-11T02:59:06.976Z,100753.84
2023-04-11T03:01:34.322Z,100753.69
2023-04-11T03:04:01.657Z,100761.44
2023-04-11T03:06:29.184Z,100767.38
2023-04-11T03:08:56.869Z,100746.47
2023-04-11T03:11:24.219Z,100759.28
2023-04-11T03:13:51.448Z,100762.00
2023-04-11T03:16:18.610Z,100768.78
2023-04-11T03:18:45.737Z,100757.66
2023-04-11T03:21:13.001Z,100765.44
2023-04-11T03:23:40.506Z,100754.97
2023-04-11T03:26:07.786Z,100761.78
2023-04-11T03:28:34.926Z,100766.16
2023-04-11T03:31:02.001Z,100768.69
2023-04-11T03:33:29.062Z,100773.00
2023-04-11T03:35:56.134Z,100780.75
2023-04-11T03:38:23.200Z,100779.97
2023-04-11T03:40:50.378Z,100774.09
2023-04-11T03:43:17.930Z,100774.63
2023-04-11T03:45:45.103Z,100777.50
2023-04-11T03:48:12.402Z,100790.22
2023-04-11T03:50:39.758Z,100778.88
2023-04-11T03:53:07.299Z,100780.84
2023-04-11T03:55:34.308Z,100795.25
2023-04-11T03:58:01.368Z,100809.72
2023-04-11T04:00:28.492Z,100803.81
2023-04-11T04:02:55.930Z,100802.88
2023-04-11T04:05:23.240Z,100813.97
2023-04-11T04:07:50.790Z,100816.63
2023-04-11T04:10:19.501Z,100811.16
2023-04-11T04:12:47.175Z,100816.31
2023-04-11T04:15:14.974Z,100826.59
2023-04-11T04:17:42.414Z,100820.72
2023-04-11T04:20:10.876Z,100821.44
2023-04-11T04:22:38.286Z,100824.06
2023-04-11T04:25:05.906Z,100824.94
2023-04-11T04:27:32.955Z,100830.94
2023-04-11T04:30:03.961Z,100835.16
2023-04-11T04:32:31.642Z,100847.25
2023-04-11T04:34:58.921Z,100842.88
2023-04-11T04:37:27.225Z,100847.06
2023-04-11T04:40:02.485Z,100844.47
2023-04-11T04:42:30.104Z,100858.06
2023-04-11T04:44:57.337Z,100862.13
2023-04-11T04:47:31.436Z,100870.34
2023-04-11T04:49:59.317Z,100855.75
2023-04-11T04:52:28.435Z,100867.66
2023-04-11T04:54:59.737Z,100867.75
2023-04-11T04:57:32.252Z,100877.75
2023-04-11T04:59:59.416Z,100866.53
2023-04-11T05:02:27.002Z,100880.19
2023-04-11T05:04:54.789Z,100882.94
2023-04-11T05:07:22.985Z,100879.38
2023-04-11T05:09:50.296Z,100891.84
2023-04-11T05:12:18.303Z,100897.19
2023-04-11T05:14:49.250Z,100894.81
2023-04-11T05:17:16.414Z,100900.47
2023-04-11T05:19:43.462Z,100917.34
2023-04-11T05:22:10.450Z,100894.25
2023-04-11T05:24:37.524Z,100909.69
2023-04-11T05:27:04.656Z,100912.41
2023-04-11T05:29:31.717Z,100914.69
2023-04-11T05:31:58.806Z,100920.16
2023-04-11T05:34:25.962Z,100927.09
2023-04-11T05:36:53.083Z,100920.06
2023-04-11T05:39:20.186Z,100921.78
2023-04-11T05:41:47.204Z,100927.63
2023-04-11T05:44:15.138Z,100917.34
2023-04-11T05:46:42.277Z,100940.63
2023-04-11T05:49:09.322Z,100942.59
2023-04-11T05:51:36.307Z,100928.03
2023-04-11T05:54:03.666Z,100943.69
2023-04-11T05:56:30.714Z,100944.41
2023-04-11T05:58:57.854Z,100948.66
2023-04-11T06:01:26.223Z,100948.94
2023-04-11T06:03:53.447Z,100950.88
2023-04-11T06:06:20.810Z,100962.34
2023-04-11T06:08:48.660Z,100964.25
2023-04-11T06:11:16.109Z,100958.22
2023-04-11T06:13:43.224Z,100963.50
2023-04-11T06:16:10.655Z,100966.94
2023-04-11T06:18:37.847Z,100975.91
2023-04-11T06:21:05.740Z,100969.88
2023-04-11T06:23:32.894Z,100965.97
2023-04-11T06:25:59.980Z,100953.81
2023-04-11T06:28:27.466Z,100957.75
2023-04-11T06:30:54.654Z,100977.72
2023-04-11T06:33:21.791Z,100974.34
2023-04-11T06:35:50.213Z,100975.31
2023-04-11T06:38:17.381Z,100985.78
2023-04-11T06:40:44.435Z,100977.44
2023-04-11T06:43:11.702Z,100986.78
2023-04-11T06:45:38.739Z,100992.19
2023-04-11T06:48:06.239Z,101002.53
2023-04-11T06:50:33.408Z,101006.19
2023-04-11T06:53:00.925Z,100998.34
2023-04-11T06:55:28.184Z,101004.97
2023-04-11T06:57:55.391Z,101007.69
2023-04-11T07:00:22.427Z,101007.16
2023-04-11T07:02:50.719Z,101011.75
2023-04-11T07:05:18.224Z,101013.72
2023-04-11T07:07:46.399Z,101010.44
2023-04-11T07:10:13.503Z,101029.88
2023-04-11T07:12:40.833Z,101021.00
2023-04-11T07:15:09.003Z,101012.59
2023-04-11T07:17:36.146Z,101015.59
2023-04-11T07:20:06.958Z,101015.38
2023-04-11T07:22:34.328Z,101023.19
2023-04-11T07:25:01.459Z,101026.78
2023-04-11T07:27:28.776Z,101033.44
2023-04-11T07:29:56.373Z,101034.34
2023-04-11T07:32:24.194Z,101028.81
2023-04-11T07:34:51.287Z,101040.19
2023-04-11T07:37:19.322Z,101034.81
2023-04-11T07:39:46.529Z,101048.22
2023-04-11T07:42:13.638Z,101047.44
2023-04-11T07:44:40.755Z,101057.78
2023-04-11T07:47:07.875Z,101049.13
2023-04-11T07:49:35.041Z,101049.44
2023-04-11T07:52:02.151Z,101052.84
2023-04-11T07:54:30.100Z,101024.97
2023-04-11T07:56:57.136Z,101055.09
2023-04-11T07:59:24.141Z,101072.94
2023-04-11T08:01:58.858Z,101072.72
2023-04-11T08:04:26.187Z,101069.94
2023-04-11T08:06:53.465Z,101089.34
2023-04-11T08:09:20.675Z,101072.78
2023-04-11T08:11:48.430Z,101070.00
2023-04-11T08:14:15.966Z,101079.00
2023-04-11T08:16:43.065Z,101083.28
2023-04-11T08:19:11.579Z,101105.56
2023-04-11T08:21:38.624Z,101092.69
2023-04-11T08:24:05.925Z,101102.44
2023-04-11T08:26:32.965Z,101092.13
2023-04-11T08:29:00.005Z,101091.06
2023-04-11T08:31:28.506Z,101108.78
2023-04-11T08:33:58.287Z,101107.63
2023-04-11T08:36:27.282Z,101106.53
2023-04-11T08:38:56.718Z,101117.66
2023-04-11T08:41:23.849Z,101114.34
2023-04-11T08:43:51.218Z,101107.84
2023-04-11T08:46:18.742Z,101113.78
2023-04-11T08:48:46.064Z,101113.09
2023-04-11T08:51:14.669Z,101125.19
2023-04-11T08:53:42.973Z,101118.09
2023-04-11T08:56:16.185Z,101131.13
2023-04-11T08:58:43.682Z,101120.66
2023-04-11T09:01:29.469Z,101136.97
2023-04-11T09:03:57.136Z,101135.09
2023-04-11T09:06:24.413Z,101117.69
2023-04-11T09:08:51.538Z,101130.78
2023-04-11T09:11:19.862Z,101112.09
2023-04-11T09:13:46.925Z,101141.25
2023-04-11T09:16:14.471Z,101141.34
2023-04-11T09:18:43.867Z,101143.75
2023-04-11T09:21:13.290Z,101130.28
2023-04-11T09:23:41.230Z,101133.06
2023-04-11T09:26:10.458Z,101143.16
2023-04-11T09:28:50.568Z,101129.47
2023-04-11T09:31:18.608Z,101136.81
2023-04-11T09:33:56.418Z,101131.50
2023-04-11T09:36:25.285Z,101132.13
2023-04-11T09:38:53.836Z,101134.91
2023-04-11T09:41:34.817Z,101132.56
2023-04-11T09:44:02.607Z,101140.44
2023-04-11T09:46:29.857Z,101149.88
2023-04-11T09:48:57.149Z,101147.66
2023-04-11T09:53:55.289Z,101162.41
2023-04-11T09:56:24.021Z,101147.75
2023-04-11T09:58:51.943Z,101159.19
2023-04-11T10:01:20.951Z,101155.72
2023-04-11T10:03:51.088Z,101157.75
2023-04-11T10:06:41.457Z,101150.28
2023-04-11T10:09:11.629Z,101174.50
2023-04-11T10:11:45.480Z,101170.59
2023-04-11T10:14:31.453Z,101169.03
2023-04-11T10:17:14.624Z,101171.50
2023-04-11T10:19:44.106Z,101167.91
2023-04-11T10:22:31.756Z,101159.53
2023-04-11T10:25:21.912Z,101176.00
2023-04-11T10:27:53.410Z,101166.84
2023-04-11T10:30:40.830Z,101179.41
2023-04-11T10:33:23.166Z,101158.47
2023-04-11T10:36:02.083Z,101174.81
2023-04-11T10:38:41.931Z,101185.25
2023-04-11T10:41:16.459Z,101175.03
2023-04-11T10:43:44.322Z,101165.94
2023-04-11T10:46:21.742Z,101180.69
2023-04-11T10:49:05.222Z,101163.66
2023-04-11T10:51:34.316Z,101181.41
2023-04-11T10:54:02.594Z,101163.00
2023-04-11T10:56:52.522Z,101174.53
2023-04-11T10:59:32.125Z,101172.34
2023-04-11T11:02:01.451Z,101175.34
2023-04-11T11:04:32.100Z,101187.81
2023-04-11T11:07:01.459Z,101176.84
2023-04-11T11:09:29.030Z,101174.97
2023-04-11T11:12:16.103Z,101194.56
2023-04-11T11:14:44.937Z,101190.16
2023-04-11T11:17:13.735Z,101185.97
2023-04-11T11:19:45.185Z,101184.09
2023-04-11T11:22:16.209Z,101189.97
2023-04-11T11:24:43.262Z,101196.78
2023-04-11T11:27:24.531Z,101207.78
2023-04-11T11:29:52.375Z,101192.88
2023-04-11T11:32:28.880Z,101201.47
2023-04-11T11:34:58.760Z,101209.28
2023-04-11T11:37:25.938Z,101224.75
2023-04-11T11:39:53.231Z,101191.84
2023-04-11T11:42:20.966Z,101197.69
2023-04-11T11:44:48.744Z,101209.69
2023-04-11T11:47:16.301Z,101207.22
2023-04-11T11:49:54.567Z,101230.72
2023-04-11T11:52:41.539Z,101201.50
2023-04-11T11:55:22.365Z,101202.22
2023-04-11T11:57:50.466Z,101202.31
2023-04-11T12:00:25.893Z,101201.69
2023-04-11T12:02:54.924Z,101205.19
2023-04-11T12:05:24.810Z,101209.72
2023-04-11T12:07:55.799Z,101215.34
2023-04-11T12:10:22.985Z,101210.56
2023-04-11T12:12:53.264Z,101201.25
2023-04-11T12:15:23.441Z,101207.63
2023-04-11T12:17:52.438Z,101213.25
2023-04-11T12:20:27.280Z,101209.72
2023-04-11T12:22:55.432Z,101220.44
2023-04-11T12:25:23.192Z,101227.44
2023-04-11T12:27:50.864Z,101217.53
2023-04-11T12:30:19.389Z,101222.25
2023-04-11T12:32:46.526Z,101210.38
2023-04-11T12:35:13.691Z,101218.69
2023-04-11T12:37:41.238Z,101217.81
2023-04-11T12:40:12.633Z,101214.78
2023-04-11T12:42:49.057Z,101226.41
2023-04-11T12:45:23.351Z,101215.66
2023-04-11T12:47:50.605Z,101219.47
2023-04-11T12:50:18.802Z,101225.31
2023-04-11T12:52:45.916Z,101215.81
2023-04-11T12:55:13.502Z,101209.56
2023-04-11T12:57:41.507Z,101215.03
2023-04-11T13:00:11.274Z,101196.13
2023-04-11T13:02:43.816Z,101204.00
2023-04-11T13:05:14.245Z,101213.78
2023-04-11T13:07:44.783Z,101222.06
2023-04-11T13:10:13.685Z,101210.03
2023-04-11T13:12:43.782Z,101200.47
2023-04-11T13:15:15.331Z,101211.44
2023-04-11T13:17:43.445Z,101213.03
2023-04-11T13:20:11.617Z,101200.97
2023-04-11T13:22:42.920Z,101210.81
2023-04-11T13:25:10.885Z,101222.94
2023-04-11T13:27:39.754Z,101214.53
2023-04-11T13:30:08.088Z,101212.97
2023-04-11T13:32:35.693Z,101216.22
2023-04-11T13:35:03.839Z,101207.72
2023-04-11T13:37:31.075Z,101210.84
2023-04-11T13:39:58.314Z,101219.69
2023-04-11T13:42:25.975Z,101221.28
2023-04-11T13:44:53.485Z,101214.28
2023-04-11T13:47:20.723Z,101219.94
2023-04-11T13:49:49.173Z,101220.06
2023-04-11T13:52:16.573Z,101218.59
2023-04-11T13:54:43.708Z,101216.13
2023-04-11T13:57:11.134Z,101202.69
2023-04-11T13:59:38.259Z,101208.50
2023-04-11T14:02:05.337Z,101207.72
2023-04-11T14:04:32.685Z,101210.00
2023-04-11T14:06:59.872Z,101201.41
2023-04-11T14:09:27.319Z,101203.44
2023-04-11T14:11:54.347Z,101210.41
2023-04-11T14:14:21.769Z,101198.22
2023-04-11T14:16:50.636Z,101197.34
2023-04-11T14:19:18.939Z,101202.53
2023-04-11T14:21:46.668Z,101194.66
2023-04-11T14:24:14.243Z,101189.41
2023-04-11T14:26:41.416Z,101180.81
2023-04-11T14:29:08.516Z,101181.59
2023-04-11T14:31:36.122Z,101184.31
2023-04-11T14:34:06.066Z,101181.66
2023-04-11T14:36:33.277Z,101185.16
2023-04-11T14:39:00.414Z,101185.16
2023-04-11T14:41:27.583Z,101186.03
2023-04-11T14:43:54.992Z,101184.28
2023-04-11T14:46:22.398Z,101199.09
2023-04-11T14:48:50.469Z,101185.94
2023-04-11T14:51:17.616Z,101168.59
2023-04-11T14:53:53.268Z,101172.06
2023-04-11T14:56:24.513Z,101175.44
2023-04-11T14:58:52.547Z,101173.81
2023-04-11T15:01:20.587Z,101183.38
2023-04-11T15:03:48.309Z,101173.84
2023-04-11T15:06:16.154Z,101167.66
2023-04-11T15:08:43.299Z,101167.66
2023-04-11T15:11:10.368Z,101168.53
2023-04-11T15:13:37.438Z,101168.63
2023-04-11T15:16:05.562Z,101158.97
2023-04-11T15:18:32.805Z,101154.59
2023-04-11T15:21:01.903Z,101148.47
2023-04-11T15:23:29.134Z,101139.72
2023-04-11T15:25:58.771Z,101152.69
2023-04-11T15:28:27.252Z,101143.13
2023-04-11T15:30:55.212Z,101127.56
2023-04-11T15:33:23.874Z,101131.09
2023-04-11T15:35:53.661Z,101131.97
2023-04-11T15:38:21.367Z,101132.78
2023-04-11T15:40:52.865Z,101130.06
2023-04-11T15:43:21.415Z,101123.97
2023-04-11T15:45:52.297Z,101121.34
2023-04-11T15:48:20.765Z,101120.47
2023-04-11T15:50:48.182Z,101121.41
2023-04-11T15:53:16.325Z,101114.44
2023-04-11T15:55:43.802Z,101098.78
2023-04-11T15:58:11.228Z,101113.34
2023-04-11T16:00:39.717Z,101119.38
2023-04-11T16:03:08.559Z,101111.63
2023-04-11T16:05:38.356Z,101112.66
2023-04-11T16:08:09.157Z,101095.25
2023-04-11T16:10:36.552Z,101104.75
2023-04-11T16:13:04.018Z,101103.78
2023-04-11T16:15:32.033Z,101098.59
2023-04-11T16:17:59.291Z,101103.03
2023-04-11T16:20:26.363Z,101100.44
2023-04-11T16:22:53.648Z,101102.25
2023-04-11T16:25:21.396Z,101100.41
2023-04-11T16:27:51.427Z,101096.19
2023-04-11T16:30:19.553Z,101091.81
2023-04-11T16:32:46.737Z,101087.47
2023-04-11T16:35:13.983Z,101081.31
2023-04-11T16:37:41.058Z,101077.97
2023-04-11T16:40:11.473Z,101072.81
2023-04-11T16:42:39.703Z,101067.59
2023-04-11T16:45:08.217Z,101069.34
2023-04-11T16:47:35.653Z,101058.09
2023-04-11T16:50:03.837Z,101058.09
2023-04-11T16:52:31.471Z,101070.13
2023-04-11T16:54:58.547Z,101059.66
2023-04-11T16:57:25.682Z,101068.50
2023-04-11T16:59:53.155Z,101069.19
2023-04-11T17:02:21.263Z,101062.31
2023-04-11T17:04:49.116Z,101054.53
2023-04-11T17:07:16.609Z,101055.44
2023-04-11T17:09:47.033Z,101053.75
2023-04-11T17:12:14.163Z,101047.63
2023-04-11T17:14:41.237Z,101032.75
2023-04-11T17:17:08.348Z,101040.38
2023-04-11T17:19:35.415Z,101049.63
2023-04-11T17:22:03.227Z,101048.50
2023-04-11T17:24:30.897Z,101041.03
2023-04-11T17:26:58.134Z,101040.00
2023-04-11T17:29:25.244Z,101032.09
2023-04-11T17:31:52.326Z,101031.88
2023-04-11T17:34:23.966Z,101024.78
2023-04-11T17:36:51.439Z,101024.78
2023-04-11T17:39:20.006Z,101015.00
2023-04-11T17:41:49.183Z,101008.06
2023-04-11T17:44:16.212Z,101006.06
2023-04-11T17:46:43.348Z,101003.63
2023-04-11T17:49:10.537Z,100993.09
2023-04-11T17:51:43.059Z,100998.34
2023-04-11T17:54:16.113Z,100996.53
2023-04-11T17:56:43.954Z,100984.41
2023-04-11T17:59:11.674Z,100989.50
2023-04-11T18:01:38.954Z,100983.41
2023-04-11T18:04:09.632Z,100982.44
2023-04-11T18:06:36.907Z,100979.75
2023-04-11T18:09:05.533Z,100978.00
2023-04-11T18:11:32.615Z,100980.56
2023-04-11T18:13:59.957Z,100982.19
2023-04-11T18:16:27.229Z,100979.59
2023-04-11T18:18:54.394Z,100983.91
2023-04-11T18:21:21.689Z,100976.09
2023-04-11T18:23:50.541Z,100968.25
2023-04-11T18:26:17.625Z,100966.50
2023-04-11T18:28:44.716Z,100964.69
2023-04-11T18:31:11.926Z,100970.78
2023-04-11T18:33:42.646Z,100966.38
2023-04-11T18:36:11.939Z,100965.53
2023-04-11T18:38:39.353Z,100956.84
2023-04-11T18:41:07.688Z,100953.31
2023-04-11T18:43:35.715Z,100946.41
2023-04-11T18:46:03.353Z,100946.25
2023-04-11T18:48:31.792Z,100951.50
2023-04-11T18:51:00.075Z,100948.88
2023-04-11T18:53:29.119Z,100954.91
2023-04-11T18:55:56.237Z,100940.97
2023-04-11T18:58:25.606Z,100947.06
2023-04-11T19:00:53.802Z,100950.47
2023-04-11T19:03:21.249Z,100944.38
2023-04-11T19:05:49.448Z,100937.38
2023-04-11T19:08:16.628Z,100926.91
2023-04-11T19:10:43.731Z,100932.16
2023-04-11T19:13:11.316Z,100922.59
2023-04-11T19:15:40.475Z,100920.75
2023-04-11T19:18:07.543Z,100908.69
2023-04-11T19:23:02.515Z,100903.44
2023-04-11T19:25:29.773Z,100911.19
2023-04-11T19:27:57.051Z,100911.22
2023-04-11T19:30:24.107Z,100914.72
2023-04-11T19:32:51.320Z,100900.09
2023-04-11T19:35:21.514Z,100907.03
2023-04-11T19:37:50.416Z,100905.22
2023-04-11T19:40:20.189Z,100910.50
2023-04-11T19:42:47.242Z,100890.56
2023-04-11T19:45:14.602Z,100900.94
2023-04-11T19:47:42.054Z,100896.59
2023-04-11T19:50:13.149Z,100881.84
2023-04-11T19:52:41.353Z,100880.88
2023-04-11T19:55:09.448Z,100879.97
2023-04-11T19:57:38.834Z,100883.44
2023-04-11T20:00:17.495Z,100873.84
2023-04-11T20:02:48.487Z,100856.47
2023-04-11T20:05:18.767Z,100854.81
2023-04-11T20:07:46.556Z,100857.38
2023-04-11T20:10:14.614Z,100840.06
2023-04-11T20:12:41.748Z,100849.63
2023-04-11T20:15:09.442Z,100840.91
2023-04-11T20:17:36.685Z,100842.66
2023-04-11T20:20:08.644Z,100826.19
2023-04-11T20:22:38.335Z,100820.19
2023-04-11T20:25:11.322Z,100816.78
2023-04-11T20:27:39.986Z,100813.34
2023-04-11T20:30:07.775Z,100815.84
2023-04-11T20:32:35.097Z,100802.06
2023-04-11T20:35:02.605Z,100793.31
2023-04-11T20:37:34.431Z,100795.97
2023-04-11T20:40:02.675Z,100774.28
2023-04-11T20:42:31.618Z,100769.16
2023-04-11T20:45:15.891Z,100766.56
2023-04-11T20:47:45.962Z,100759.72
2023-04-11T20:50:14.596Z,100762.25
2023-04-11T20:52:43.424Z,100745.84
2023-04-11T20:55:10.934Z,100752.78
2023-04-11T20:57:38.199Z,100735.38
2023-04-11T21:00:14.129Z,100740.59
2023-04-11T21:02:44.081Z,100737.09
2023-04-11T21:05:15.097Z,100717.22
2023-04-11T21:07:43.294Z,100710.19
2023-04-11T21:10:11.994Z,100696.34
2023-04-11T21:12:39.711Z,100703.38
2023-04-11T21:15:07.522Z,100701.63
2023-04-11T21:17:35.527Z,100705.94
2023-04-11T21:20:11.179Z,100692.03
2023-04-11T21:22:38.385Z,100686.84
2023-04-11T21:25:05.935Z,100692.03
2023-04-11T21:27:33.045Z,100691.13
2023-04-11T21:30:00.260Z,100673.84
2023-04-11T21:32:28.134Z,100684.34
2023-04-11T21:34:55.239Z,100673.00
2023-04-11T21:37:22.298Z,100675.63
2023-04-11T21:39:50.488Z,100673.06
2023-04-11T21:42:18.932Z,100663.59
2023-04-11T21:44:46.036Z,100661.03
2023-04-11T21:47:13.097Z,100650.53
2023-04-11T21:49:40.171Z,100653.97
2023-04-11T21:52:07.550Z,100661.03
2023-04-11T21:54:34.696Z,100658.47
2023-04-11T21:57:02.330Z,100643.66
2023-04-11T21:59:29.504Z,100649.84
2023-04-11T22:01:56.870Z,100642.00
2023-04-11T22:04:24.151Z,100643.69
2023-04-11T22:06:51.403Z,100633.31
2023-04-11T22:09:19.862Z,100637.50
2023-04-11T22:11:46.981Z,100638.28
2023-04-11T22:14:16.396Z,100626.19
2023-04-11T22:16:49.467Z,100624.56
2023-04-11T22:19:20.779Z,100631.50
2023-04-11T22:21:49.418Z,100626.25
2023-04-11T22:24:16.515Z,100613.19
2023-04-11T22:26:49.406Z,100603.69
2023-04-11T22:29:19.134Z,100611.47
2023-04-11T22:31:48.532Z,100609.72
2023-04-11T22:34:16.033Z,100595.81
2023-04-11T22:36:43.071Z,100594.00
2023-04-11T22:39:10.471Z,100590.47
2023-04-11T22:41:38.660Z,100584.47
2023-04-11T22:44:08.834Z,100577.56
2023-04-11T22:46:39.063Z,100570.56
2023-04-11T22:49:06.880Z,100557.41
2023-04-11T22:51:33.948Z,100558.19
2023-04-11T22:54:02.513Z,100543.41
2023-04-11T22:56:29.785Z,100555.53
2023-04-11T22:58:56.851Z,100532.09
2023-04-11T23:01:24.312Z,100532.91
2023-04-11T23:03:51.926Z,100533.81
2023-04-11T23:06:20.143Z,100524.34
2023-04-11T23:08:50.164Z,100525.00
2023-04-11T23:11:18.310Z,100513.91
2023-04-11T23:13:46.133Z,100510.38
2023-04-11T23:16:13.329Z,100494.78
2023-04-11T23:18:40.414Z,100496.56
2023-04-11T23:21:13.604Z,100493.16
2023-04-11T23:23:40.942Z,100492.31
2023-04-11T23:26:08.109Z,100493.28
2023-04-11T23:28:35.152Z,100483.66
2023-04-11T23:31:02.571Z,100480.16
2023-04-11T23:33:30.966Z,100475.81
2023-04-11T23:35:58.118Z,100476.66
2023-04-11T23:38:25.202Z,100469.66
2023-04-11T23:40:52.291Z,100463.63
2023-04-11T23:43:20.424Z,100453.19
2023-04-11T23:45:48.054Z,100449.72
2023-04-11T23:48:16.469Z,100428.97
2023-04-11T23:50:43.481Z,100439.47
2023-04-11T23:53:10.688Z,100432.53
2023-04-11T23:55:40.212Z,100412.53
2023-04-11T23:58:07.287Z,100416.88
